sensor_id;sensor_type;location;lat;lon;timestamp;temperature;humidity
74617;DHT22;63123;50.906;4.198;2023-02-01T00:02:04;16.60;50.50
74617;DHT22;63123;50.906;4.198;2023-02-01T00:04:30;16.70;50.50
74617;DHT22;63123;50.906;4.198;2023-02-01T00:06:56;16.60;50.40
74617;DHT22;63123;50.906;4.198;2023-02-01T00:09:21;16.60;50.40
74617;DHT22;63123;50.906;4.198;2023-02-01T00:11:47;16.60;50.40
74617;DHT22;63123;50.906;4.198;2023-02-01T00:14:12;16.60;50.40
74617;DHT22;63123;50.906;4.198;2023-02-01T00:16:39;16.60;50.50
74617;DHT22;63123;50.906;4.198;2023-02-01T00:19:13;16.60;50.40
74617;DHT22;63123;50.906;4.198;2023-02-01T00:21:39;16.60;50.40
74617;DHT22;63123;50.906;4.198;2023-02-01T00:24:05;16.60;50.40
74617;DHT22;63123;50.906;4.198;2023-02-01T00:26:40;16.60;50.30
74617;DHT22;63123;50.906;4.198;2023-02-01T00:29:11;16.60;50.30
74617;DHT22;63123;50.906;4.198;2023-02-01T00:31:36;16.60;50.20
74617;DHT22;63123;50.906;4.198;2023-02-01T00:34:03;16.60;50.20
74617;DHT22;63123;50.906;4.198;2023-02-01T00:36:28;16.60;50.10
74617;DHT22;63123;50.906;4.198;2023-02-01T00:38:55;16.60;50.10
74617;DHT22;63123;50.906;4.198;2023-02-01T00:41:21;16.60;50.00
74617;DHT22;63123;50.906;4.198;2023-02-01T00:43:48;16.60;49.90
74617;DHT22;63123;50.906;4.198;2023-02-01T00:46:15;16.60;49.90
74617;DHT22;63123;50.906;4.198;2023-02-01T00:48:41;16.60;49.80
74617;DHT22;63123;50.906;4.198;2023-02-01T00:51:09;16.60;49.60
74617;DHT22;63123;50.906;4.198;2023-02-01T00:53:36;16.70;49.70
74617;DHT22;63123;50.906;4.198;2023-02-01T00:56:02;16.60;49.50
74617;DHT22;63123;50.906;4.198;2023-02-01T00:58:28;16.60;49.60
74617;DHT22;63123;50.906;4.198;2023-02-01T01:01:09;16.60;49.50
74617;DHT22;63123;50.906;4.198;2023-02-01T01:03:37;16.60;49.50
74617;DHT22;63123;50.906;4.198;2023-02-01T01:06:12;16.60;49.20
74617;DHT22;63123;50.906;4.198;2023-02-01T01:08:39;16.60;49.30
74617;DHT22;63123;50.906;4.198;2023-02-01T01:11:13;16.60;49.20
74617;DHT22;63123;50.906;4.198;2023-02-01T01:13:39;16.60;49.20
74617;DHT22;63123;50.906;4.198;2023-02-01T01:16:06;16.60;49.10
74617;DHT22;63123;50.906;4.198;2023-02-01T01:18:33;16.60;49.20
74617;DHT22;63123;50.906;4.198;2023-02-01T01:20:59;16.60;49.10
74617;DHT22;63123;50.906;4.198;2023-02-01T01:23:24;16.60;49.10
74617;DHT22;63123;50.906;4.198;2023-02-01T01:25:50;16.60;49.20
74617;DHT22;63123;50.906;4.198;2023-02-01T01:28:16;16.60;49.00
74617;DHT22;63123;50.906;4.198;2023-02-01T01:30:41;16.60;49.20
74617;DHT22;63123;50.906;4.198;2023-02-01T01:33:07;16.60;49.10
74617;DHT22;63123;50.906;4.198;2023-02-01T01:35:33;16.60;49.10
74617;DHT22;63123;50.906;4.198;2023-02-01T01:37:59;16.60;49.10
74617;DHT22;63123;50.906;4.198;2023-02-01T01:40:26;16.60;48.90
74617;DHT22;63123;50.906;4.198;2023-02-01T01:42:52;16.60;49.10
74617;DHT22;63123;50.906;4.198;2023-02-01T01:45:35;16.60;48.80
74617;DHT22;63123;50.906;4.198;2023-02-01T01:48:29;16.60;48.80
74617;DHT22;63123;50.906;4.198;2023-02-01T01:50:57;16.60;49.00
74617;DHT22;63123;50.906;4.198;2023-02-01T01:53:27;16.60;48.90
74617;DHT22;63123;50.906;4.198;2023-02-01T01:55:54;16.60;48.80
74617;DHT22;63123;50.906;4.198;2023-02-01T01:58:23;16.60;48.90
74617;DHT22;63123;50.906;4.198;2023-02-01T02:00:50;16.60;49.60
74617;DHT22;63123;50.906;4.198;2023-02-01T02:03:25;16.60;48.60
74617;DHT22;63123;50.906;4.198;2023-02-01T02:05:53;16.60;48.70
74617;DHT22;63123;50.906;4.198;2023-02-01T02:08:21;16.60;48.60
74617;DHT22;63123;50.906;4.198;2023-02-01T02:10:48;16.60;48.50
74617;DHT22;63123;50.906;4.198;2023-02-01T02:13:39;16.60;48.50
74617;DHT22;63123;50.906;4.198;2023-02-01T02:21:37;16.60;48.40
74617;DHT22;63123;50.906;4.198;2023-02-01T02:24:47;16.60;48.60
74617;DHT22;63123;50.906;4.198;2023-02-01T02:35:27;16.60;48.40
74617;DHT22;63123;50.906;4.198;2023-02-01T02:38:18;16.60;48.30
74617;DHT22;63123;50.906;4.198;2023-02-01T02:43:45;16.60;48.40
74617;DHT22;63123;50.906;4.198;2023-02-01T02:46:33;16.60;48.40
74617;DHT22;63123;50.906;4.198;2023-02-01T02:49:23;16.60;48.30
74617;DHT22;63123;50.906;4.198;2023-02-01T02:51:59;16.60;48.20
74617;DHT22;63123;50.906;4.198;2023-02-01T02:54:47;16.60;48.20
74617;DHT22;63123;50.906;4.198;2023-02-01T02:57:24;16.60;48.20
74617;DHT22;63123;50.906;4.198;2023-02-01T03:00:13;16.60;48.20
74617;DHT22;63123;50.906;4.198;2023-02-01T03:02:59;16.60;48.10
74617;DHT22;63123;50.906;4.198;2023-02-01T03:05:45;16.60;48.30
74617;DHT22;63123;50.906;4.198;2023-02-01T03:08:17;16.60;48.10
74617;DHT22;63123;50.906;4.198;2023-02-01T03:11:00;16.60;48.10
74617;DHT22;63123;50.906;4.198;2023-02-01T03:13:50;16.60;47.90
74617;DHT22;63123;50.906;4.198;2023-02-01T03:16:31;16.60;48.00
74617;DHT22;63123;50.906;4.198;2023-02-01T03:19:06;16.60;48.00
74617;DHT22;63123;50.906;4.198;2023-02-01T03:21:40;16.60;47.90
74617;DHT22;63123;50.906;4.198;2023-02-01T03:27:05;16.60;47.80
74617;DHT22;63123;50.906;4.198;2023-02-01T03:30:06;16.60;48.00
74617;DHT22;63123;50.906;4.198;2023-02-01T03:32:34;16.60;48.00
74617;DHT22;63123;50.906;4.198;2023-02-01T03:35:25;16.60;47.90
74617;DHT22;63123;50.906;4.198;2023-02-01T03:37:54;16.60;48.00
74617;DHT22;63123;50.906;4.198;2023-02-01T03:40:22;16.60;47.90
74617;DHT22;63123;50.906;4.198;2023-02-01T03:42:52;16.60;47.90
74617;DHT22;63123;50.906;4.198;2023-02-01T03:47:49;16.60;47.90
74617;DHT22;63123;50.906;4.198;2023-02-01T03:50:17;16.60;47.80
74617;DHT22;63123;50.906;4.198;2023-02-01T03:52:50;16.60;47.60
74617;DHT22;63123;50.906;4.198;2023-02-01T03:55:19;16.60;47.60
74617;DHT22;63123;50.906;4.198;2023-02-01T03:57:56;16.60;47.70
74617;DHT22;63123;50.906;4.198;2023-02-01T04:00:24;16.60;47.60
74617;DHT22;63123;50.906;4.198;2023-02-01T04:02:51;16.60;47.80
74617;DHT22;63123;50.906;4.198;2023-02-01T04:05:18;16.60;47.50
74617;DHT22;63123;50.906;4.198;2023-02-01T04:07:44;16.60;47.50
74617;DHT22;63123;50.906;4.198;2023-02-01T04:10:10;16.60;47.60
74617;DHT22;63123;50.906;4.198;2023-02-01T04:12:36;16.60;47.50
74617;DHT22;63123;50.906;4.198;2023-02-01T04:15:02;16.60;47.60
74617;DHT22;63123;50.906;4.198;2023-02-01T04:17:29;16.60;47.50
74617;DHT22;63123;50.906;4.198;2023-02-01T04:19:55;16.60;47.40
74617;DHT22;63123;50.906;4.198;2023-02-01T04:22:20;16.60;47.70
74617;DHT22;63123;50.906;4.198;2023-02-01T04:24:46;16.60;47.60
74617;DHT22;63123;50.906;4.198;2023-02-01T04:27:11;16.60;47.70
74617;DHT22;63123;50.906;4.198;2023-02-01T04:29:37;16.60;47.60
74617;DHT22;63123;50.906;4.198;2023-02-01T04:32:03;16.60;47.60
74617;DHT22;63123;50.906;4.198;2023-02-01T04:34:29;16.60;47.40
74617;DHT22;63123;50.906;4.198;2023-02-01T04:36:54;16.60;47.60
74617;DHT22;63123;50.906;4.198;2023-02-01T04:39:20;16.60;47.30
74617;DHT22;63123;50.906;4.198;2023-02-01T04:41:45;16.60;47.30
74617;DHT22;63123;50.906;4.198;2023-02-01T04:44:16;16.60;47.10
74617;DHT22;63123;50.906;4.198;2023-02-01T04:46:42;16.60;47.30
74617;DHT22;63123;50.906;4.198;2023-02-01T04:49:09;16.60;47.20
74617;DHT22;63123;50.906;4.198;2023-02-01T04:51:35;16.60;47.10
74617;DHT22;63123;50.906;4.198;2023-02-01T04:54:01;16.60;47.20
74617;DHT22;63123;50.906;4.198;2023-02-01T04:56:26;16.60;47.00
74617;DHT22;63123;50.906;4.198;2023-02-01T04:58:52;16.60;47.10
74617;DHT22;63123;50.906;4.198;2023-02-01T05:01:18;16.60;47.10
74617;DHT22;63123;50.906;4.198;2023-02-01T05:03:43;16.60;47.10
74617;DHT22;63123;50.906;4.198;2023-02-01T05:06:09;16.60;47.10
74617;DHT22;63123;50.906;4.198;2023-02-01T05:08:34;16.60;47.20
74617;DHT22;63123;50.906;4.198;2023-02-01T05:11:00;16.60;47.10
74617;DHT22;63123;50.906;4.198;2023-02-01T05:13:28;16.60;47.00
74617;DHT22;63123;50.906;4.198;2023-02-01T05:16:12;16.60;47.00
74617;DHT22;63123;50.906;4.198;2023-02-01T05:18:38;16.60;47.10
74617;DHT22;63123;50.906;4.198;2023-02-01T05:21:03;16.60;47.10
74617;DHT22;63123;50.906;4.198;2023-02-01T05:23:29;16.60;47.00
74617;DHT22;63123;50.906;4.198;2023-02-01T05:25:59;16.60;47.10
74617;DHT22;63123;50.906;4.198;2023-02-01T05:28:25;16.60;47.00
74617;DHT22;63123;50.906;4.198;2023-02-01T05:30:51;16.60;47.10
74617;DHT22;63123;50.906;4.198;2023-02-01T05:33:17;16.60;46.90
74617;DHT22;63123;50.906;4.198;2023-02-01T05:35:42;16.60;47.10
74617;DHT22;63123;50.906;4.198;2023-02-01T05:38:08;16.60;47.20
74617;DHT22;63123;50.906;4.198;2023-02-01T05:40:33;16.60;47.00
74617;DHT22;63123;50.906;4.198;2023-02-01T05:42:59;16.60;47.00
74617;DHT22;63123;50.906;4.198;2023-02-01T05:45:25;16.60;47.00
74617;DHT22;63123;50.906;4.198;2023-02-01T05:47:50;16.60;46.90
74617;DHT22;63123;50.906;4.198;2023-02-01T05:50:16;16.60;46.90
74617;DHT22;63123;50.906;4.198;2023-02-01T05:52:42;16.60;47.00
74617;DHT22;63123;50.906;4.198;2023-02-01T05:55:08;16.60;46.80
74617;DHT22;63123;50.906;4.198;2023-02-01T05:57:33;16.60;46.80
74617;DHT22;63123;50.906;4.198;2023-02-01T05:59:59;16.60;46.70
74617;DHT22;63123;50.906;4.198;2023-02-01T06:02:24;16.60;46.70
74617;DHT22;63123;50.906;4.198;2023-02-01T06:04:51;16.60;46.70
74617;DHT22;63123;50.906;4.198;2023-02-01T06:07:16;16.60;46.70
74617;DHT22;63123;50.906;4.198;2023-02-01T06:09:42;16.60;46.70
74617;DHT22;63123;50.906;4.198;2023-02-01T06:12:08;16.60;46.60
74617;DHT22;63123;50.906;4.198;2023-02-01T06:14:33;16.60;46.60
74617;DHT22;63123;50.906;4.198;2023-02-01T06:16:59;16.60;46.60
74617;DHT22;63123;50.906;4.198;2023-02-01T06:19:24;16.60;46.60
74617;DHT22;63123;50.906;4.198;2023-02-01T06:21:50;16.60;46.70
74617;DHT22;63123;50.906;4.198;2023-02-01T06:24:16;16.60;46.60
74617;DHT22;63123;50.906;4.198;2023-02-01T06:26:41;16.60;47.00
74617;DHT22;63123;50.906;4.198;2023-02-01T06:29:09;16.60;46.60
74617;DHT22;63123;50.906;4.198;2023-02-01T06:31:35;16.60;46.60
74617;DHT22;63123;50.906;4.198;2023-02-01T06:34:01;16.60;46.90
74617;DHT22;63123;50.906;4.198;2023-02-01T06:36:28;16.60;46.50
74617;DHT22;63123;50.906;4.198;2023-02-01T06:38:55;16.60;46.50
74617;DHT22;63123;50.906;4.198;2023-02-01T06:41:22;16.60;46.70
74617;DHT22;63123;50.906;4.198;2023-02-01T06:43:47;16.60;46.60
74617;DHT22;63123;50.906;4.198;2023-02-01T06:46:13;16.60;46.60
74617;DHT22;63123;50.906;4.198;2023-02-01T06:48:39;16.60;46.70
74617;DHT22;63123;50.906;4.198;2023-02-01T06:51:05;16.60;46.80
74617;DHT22;63123;50.906;4.198;2023-02-01T06:53:31;16.60;46.70
74617;DHT22;63123;50.906;4.198;2023-02-01T06:55:59;16.60;46.70
74617;DHT22;63123;50.906;4.198;2023-02-01T06:58:30;16.60;46.70
74617;DHT22;63123;50.906;4.198;2023-02-01T07:00:56;16.60;46.70
74617;DHT22;63123;50.906;4.198;2023-02-01T07:03:21;16.60;46.70
74617;DHT22;63123;50.906;4.198;2023-02-01T07:05:47;16.60;46.60
74617;DHT22;63123;50.906;4.198;2023-02-01T07:08:12;16.60;46.80
74617;DHT22;63123;50.906;4.198;2023-02-01T07:10:38;16.60;46.80
74617;DHT22;63123;50.906;4.198;2023-02-01T07:13:04;16.60;46.60
74617;DHT22;63123;50.906;4.198;2023-02-01T07:15:29;16.60;46.70
74617;DHT22;63123;50.906;4.198;2023-02-01T07:17:55;16.60;46.70
74617;DHT22;63123;50.906;4.198;2023-02-01T07:20:21;16.60;46.60
74617;DHT22;63123;50.906;4.198;2023-02-01T07:22:47;16.60;46.80
74617;DHT22;63123;50.906;4.198;2023-02-01T07:25:12;16.60;46.70
74617;DHT22;63123;50.906;4.198;2023-02-01T07:27:38;16.60;46.90
74617;DHT22;63123;50.906;4.198;2023-02-01T07:30:05;16.60;46.70
74617;DHT22;63123;50.906;4.198;2023-02-01T07:32:30;16.60;46.90
74617;DHT22;63123;50.906;4.198;2023-02-01T07:34:57;16.60;47.00
74617;DHT22;63123;50.906;4.198;2023-02-01T07:37:23;16.60;46.60
74617;DHT22;63123;50.906;4.198;2023-02-01T07:39:50;16.60;46.60
74617;DHT22;63123;50.906;4.198;2023-02-01T07:42:16;16.60;46.70
74617;DHT22;63123;50.906;4.198;2023-02-01T07:44:42;16.60;46.80
74617;DHT22;63123;50.906;4.198;2023-02-01T07:47:07;16.60;46.70
74617;DHT22;63123;50.906;4.198;2023-02-01T07:49:33;16.60;46.70
74617;DHT22;63123;50.906;4.198;2023-02-01T07:51:58;16.60;46.70
74617;DHT22;63123;50.906;4.198;2023-02-01T07:54:24;16.60;46.80
74617;DHT22;63123;50.906;4.198;2023-02-01T07:56:49;16.60;46.80
74617;DHT22;63123;50.906;4.198;2023-02-01T07:59:15;16.60;46.90
74617;DHT22;63123;50.906;4.198;2023-02-01T08:01:41;16.60;46.70
74617;DHT22;63123;50.906;4.198;2023-02-01T08:04:12;16.60;46.80
74617;DHT22;63123;50.906;4.198;2023-02-01T08:06:38;16.60;46.80
74617;DHT22;63123;50.906;4.198;2023-02-01T08:09:05;16.60;46.70
74617;DHT22;63123;50.906;4.198;2023-02-01T08:11:31;16.60;46.80
74617;DHT22;63123;50.906;4.198;2023-02-01T08:13:58;16.60;46.90
74617;DHT22;63123;50.906;4.198;2023-02-01T08:16:24;16.60;46.70
74617;DHT22;63123;50.906;4.198;2023-02-01T08:18:50;16.60;46.90
74617;DHT22;63123;50.906;4.198;2023-02-01T08:21:18;16.60;46.70
74617;DHT22;63123;50.906;4.198;2023-02-01T08:23:44;16.70;47.00
74617;DHT22;63123;50.906;4.198;2023-02-01T08:26:20;16.60;46.90
74617;DHT22;63123;50.906;4.198;2023-02-01T08:28:50;16.60;47.30
74617;DHT22;63123;50.906;4.198;2023-02-01T08:31:18;16.60;46.80
74617;DHT22;63123;50.906;4.198;2023-02-01T08:33:52;16.60;47.20
74617;DHT22;63123;50.906;4.198;2023-02-01T08:36:18;16.60;47.40
74617;DHT22;63123;50.906;4.198;2023-02-01T08:38:44;16.60;47.50
74617;DHT22;63123;50.906;4.198;2023-02-01T08:41:13;16.60;47.50
74617;DHT22;63123;50.906;4.198;2023-02-01T08:43:40;16.60;47.40
74617;DHT22;63123;50.906;4.198;2023-02-01T08:46:06;16.60;47.30
74617;DHT22;63123;50.906;4.198;2023-02-01T08:48:32;16.70;47.30
74617;DHT22;63123;50.906;4.198;2023-02-01T08:51:01;16.60;47.10
74617;DHT22;63123;50.906;4.198;2023-02-01T08:53:28;16.60;47.20
74617;DHT22;63123;50.906;4.198;2023-02-01T08:55:54;16.60;47.30
74617;DHT22;63123;50.906;4.198;2023-02-01T08:58:19;16.60;47.10
74617;DHT22;63123;50.906;4.198;2023-02-01T09:00:47;16.60;47.30
74617;DHT22;63123;50.906;4.198;2023-02-01T09:03:13;16.60;47.30
74617;DHT22;63123;50.906;4.198;2023-02-01T09:05:39;16.70;47.20
74617;DHT22;63123;50.906;4.198;2023-02-01T09:08:05;16.60;47.30
74617;DHT22;63123;50.906;4.198;2023-02-01T09:10:31;16.60;47.20
74617;DHT22;63123;50.906;4.198;2023-02-01T09:12:56;16.60;47.20
74617;DHT22;63123;50.906;4.198;2023-02-01T09:15:22;16.70;47.50
74617;DHT22;63123;50.906;4.198;2023-02-01T09:17:47;16.70;47.40
74617;DHT22;63123;50.906;4.198;2023-02-01T09:20:14;16.70;47.40
74617;DHT22;63123;50.906;4.198;2023-02-01T09:22:40;16.70;47.70
74617;DHT22;63123;50.906;4.198;2023-02-01T09:25:06;16.70;47.20
74617;DHT22;63123;50.906;4.198;2023-02-01T09:27:33;16.70;47.10
74617;DHT22;63123;50.906;4.198;2023-02-01T09:29:58;16.70;47.20
74617;DHT22;63123;50.906;4.198;2023-02-01T09:32:24;16.70;47.30
74617;DHT22;63123;50.906;4.198;2023-02-01T09:34:51;16.70;47.20
74617;DHT22;63123;50.906;4.198;2023-02-01T09:37:17;16.70;47.30
74617;DHT22;63123;50.906;4.198;2023-02-01T09:39:43;16.70;47.20
74617;DHT22;63123;50.906;4.198;2023-02-01T09:42:27;16.70;47.40
74617;DHT22;63123;50.906;4.198;2023-02-01T09:45:19;16.70;47.30
74617;DHT22;63123;50.906;4.198;2023-02-01T09:47:49;16.70;47.50
74617;DHT22;63123;50.906;4.198;2023-02-01T09:50:22;16.70;47.50
74617;DHT22;63123;50.906;4.198;2023-02-01T09:55:51;16.70;47.30
74617;DHT22;63123;50.906;4.198;2023-02-01T09:58:35;16.80;47.30
74617;DHT22;63123;50.906;4.198;2023-02-01T10:01:03;16.70;47.20
74617;DHT22;63123;50.906;4.198;2023-02-01T10:03:33;16.80;47.40
74617;DHT22;63123;50.906;4.198;2023-02-01T10:09:17;16.80;47.30
74617;DHT22;63123;50.906;4.198;2023-02-01T10:20:36;16.80;47.30
74617;DHT22;63123;50.906;4.198;2023-02-01T10:25:56;16.80;47.20
74617;DHT22;63123;50.906;4.198;2023-02-01T10:28:25;16.80;47.30
74617;DHT22;63123;50.906;4.198;2023-02-01T10:30:56;16.80;47.20
74617;DHT22;63123;50.906;4.198;2023-02-01T10:33:34;16.80;47.30
74617;DHT22;63123;50.906;4.198;2023-02-01T10:38:32;16.80;47.40
74617;DHT22;63123;50.906;4.198;2023-02-01T10:41:03;16.90;47.40
74617;DHT22;63123;50.906;4.198;2023-02-01T10:43:33;16.80;47.20
74617;DHT22;63123;50.906;4.198;2023-02-01T10:45:59;16.80;47.30
74617;DHT22;63123;50.906;4.198;2023-02-01T10:48:25;16.80;47.30
74617;DHT22;63123;50.906;4.198;2023-02-01T10:51:06;16.90;47.30
74617;DHT22;63123;50.906;4.198;2023-02-01T10:53:50;16.80;47.20
74617;DHT22;63123;50.906;4.198;2023-02-01T10:56:25;16.90;47.40
74617;DHT22;63123;50.906;4.198;2023-02-01T10:58:52;16.80;47.30
74617;DHT22;63123;50.906;4.198;2023-02-01T11:01:30;16.80;47.20
74617;DHT22;63123;50.906;4.198;2023-02-01T11:03:58;16.80;47.30
74617;DHT22;63123;50.906;4.198;2023-02-01T11:06:52;16.80;47.40
74617;DHT22;63123;50.906;4.198;2023-02-01T11:09:20;16.80;47.30
74617;DHT22;63123;50.906;4.198;2023-02-01T11:16:56;16.80;47.30
74617;DHT22;63123;50.906;4.198;2023-02-01T11:19:22;16.80;47.30
74617;DHT22;63123;50.906;4.198;2023-02-01T11:21:55;16.80;47.30
74617;DHT22;63123;50.906;4.198;2023-02-01T11:24:25;16.80;47.30
74617;DHT22;63123;50.906;4.198;2023-02-01T11:26:56;16.80;47.30
74617;DHT22;63123;50.906;4.198;2023-02-01T11:29:23;16.80;47.30
74617;DHT22;63123;50.906;4.198;2023-02-01T11:31:56;16.80;47.40
74617;DHT22;63123;50.906;4.198;2023-02-01T11:34:26;16.80;47.30
74617;DHT22;63123;50.906;4.198;2023-02-01T11:36:55;16.80;47.30
74617;DHT22;63123;50.906;4.198;2023-02-01T11:39:33;16.80;47.30
74617;DHT22;63123;50.906;4.198;2023-02-01T11:42:16;16.80;47.20
74617;DHT22;63123;50.906;4.198;2023-02-01T11:44:44;16.70;47.20
74617;DHT22;63123;50.906;4.198;2023-02-01T11:47:26;16.80;47.30
74617;DHT22;63123;50.906;4.198;2023-02-01T11:50:00;16.80;47.20
74617;DHT22;63123;50.906;4.198;2023-02-01T11:52:44;16.80;47.20
74617;DHT22;63123;50.906;4.198;2023-02-01T12:06:39;16.80;47.20
74617;DHT22;63123;50.906;4.198;2023-02-01T12:20:21;16.80;47.00
74617;DHT22;63123;50.906;4.198;2023-02-01T12:23:45;16.70;46.90
74617;DHT22;63123;50.906;4.198;2023-02-01T12:42:26;16.80;46.70
74617;DHT22;63123;50.906;4.198;2023-02-01T12:45:10;16.80;46.80
74617;DHT22;63123;50.906;4.198;2023-02-01T12:47:51;16.80;46.80
74617;DHT22;63123;50.906;4.198;2023-02-01T12:50:24;16.80;46.80
74617;DHT22;63123;50.906;4.198;2023-02-01T12:52:53;16.80;46.70
74617;DHT22;63123;50.906;4.198;2023-02-01T12:55:55;16.80;46.90
74617;DHT22;63123;50.906;4.198;2023-02-01T12:58:43;16.80;46.70
74617;DHT22;63123;50.906;4.198;2023-02-01T13:01:34;16.80;46.70
74617;DHT22;63123;50.906;4.198;2023-02-01T13:04:33;16.80;46.60
74617;DHT22;63123;50.906;4.198;2023-02-01T13:07:16;16.80;46.70
74617;DHT22;63123;50.906;4.198;2023-02-01T13:09:55;16.80;47.20
74617;DHT22;63123;50.906;4.198;2023-02-01T13:13:31;16.80;46.60
74617;DHT22;63123;50.906;4.198;2023-02-01T13:16:17;16.80;46.60
74617;DHT22;63123;50.906;4.198;2023-02-01T13:18:49;16.80;46.60
74617;DHT22;63123;50.906;4.198;2023-02-01T13:21:23;16.80;46.50
74617;DHT22;63123;50.906;4.198;2023-02-01T13:23:50;16.80;46.60
74617;DHT22;63123;50.906;4.198;2023-02-01T13:26:17;16.80;46.60
74617;DHT22;63123;50.906;4.198;2023-02-01T13:29:02;16.80;46.50
74617;DHT22;63123;50.906;4.198;2023-02-01T13:42:58;16.80;46.40
74617;DHT22;63123;50.906;4.198;2023-02-01T13:45:30;16.80;46.50
74617;DHT22;63123;50.906;4.198;2023-02-01T13:48:00;16.80;46.50
74617;DHT22;63123;50.906;4.198;2023-02-01T13:50:35;16.80;46.40
74617;DHT22;63123;50.906;4.198;2023-02-01T13:55:41;16.80;46.50
74617;DHT22;63123;50.906;4.198;2023-02-01T13:58:18;16.80;46.50
74617;DHT22;63123;50.906;4.198;2023-02-01T14:00:44;16.80;46.50
74617;DHT22;63123;50.906;4.198;2023-02-01T14:03:45;16.80;46.50
74617;DHT22;63123;50.906;4.198;2023-02-01T14:06:37;16.70;46.40
74617;DHT22;63123;50.906;4.198;2023-02-01T14:16:42;16.80;46.70
74617;DHT22;63123;50.906;4.198;2023-02-01T14:19:22;16.80;46.60
74617;DHT22;63123;50.906;4.198;2023-02-01T14:21:54;16.80;46.60
74617;DHT22;63123;50.906;4.198;2023-02-01T14:24:34;16.80;46.80
74617;DHT22;63123;50.906;4.198;2023-02-01T14:27:06;16.70;46.40
74617;DHT22;63123;50.906;4.198;2023-02-01T14:29:41;16.80;46.60
74617;DHT22;63123;50.906;4.198;2023-02-01T14:32:22;16.70;46.50
74617;DHT22;63123;50.906;4.198;2023-02-01T14:34:52;16.80;46.70
74617;DHT22;63123;50.906;4.198;2023-02-01T14:50:29;16.70;46.40
74617;DHT22;63123;50.906;4.198;2023-02-01T14:55:40;16.70;46.60
74617;DHT22;63123;50.906;4.198;2023-02-01T15:01:18;16.70;46.60
74617;DHT22;63123;50.906;4.198;2023-02-01T15:03:56;16.70;46.60
74617;DHT22;63123;50.906;4.198;2023-02-01T15:06:39;16.70;46.70
74617;DHT22;63123;50.906;4.198;2023-02-01T15:09:17;16.80;46.70
74617;DHT22;63123;50.906;4.198;2023-02-01T15:17:37;16.70;46.60
74617;DHT22;63123;50.906;4.198;2023-02-01T15:20:15;16.80;47.00
74617;DHT22;63123;50.906;4.198;2023-02-01T15:22:43;16.80;46.90
74617;DHT22;63123;50.906;4.198;2023-02-01T15:25:35;16.80;46.60
74617;DHT22;63123;50.906;4.198;2023-02-01T15:28:03;16.80;47.10
74617;DHT22;63123;50.906;4.198;2023-02-01T15:30:32;16.80;46.40
74617;DHT22;63123;50.906;4.198;2023-02-01T15:33:15;16.80;46.70
74617;DHT22;63123;50.906;4.198;2023-02-01T15:35:44;16.80;46.60
74617;DHT22;63123;50.906;4.198;2023-02-01T15:44:02;16.80;46.60
74617;DHT22;63123;50.906;4.198;2023-02-01T15:46:38;16.80;46.50
74617;DHT22;63123;50.906;4.198;2023-02-01T16:08:23;16.70;47.90
74617;DHT22;63123;50.906;4.198;2023-02-01T16:10:51;16.80;47.60
74617;DHT22;63123;50.906;4.198;2023-02-01T16:13:19;16.80;47.60
74617;DHT22;63123;50.906;4.198;2023-02-01T16:15:45;16.70;47.40
74617;DHT22;63123;50.906;4.198;2023-02-01T16:18:12;16.80;47.30
74617;DHT22;63123;50.906;4.198;2023-02-01T16:20:40;16.80;47.20
74617;DHT22;63123;50.906;4.198;2023-02-01T16:23:07;16.80;47.10
74617;DHT22;63123;50.906;4.198;2023-02-01T16:25:34;16.80;46.90
74617;DHT22;63123;50.906;4.198;2023-02-01T16:27:59;16.80;47.10
74617;DHT22;63123;50.906;4.198;2023-02-01T16:30:25;16.80;47.00
74617;DHT22;63123;50.906;4.198;2023-02-01T16:32:55;16.80;46.80
74617;DHT22;63123;50.906;4.198;2023-02-01T16:35:36;16.80;46.60
74617;DHT22;63123;50.906;4.198;2023-02-01T16:40:34;16.80;46.80
74617;DHT22;63123;50.906;4.198;2023-02-01T16:42:59;16.80;46.80
74617;DHT22;63123;50.906;4.198;2023-02-01T16:45:25;16.80;46.90
74617;DHT22;63123;50.906;4.198;2023-02-01T16:47:53;16.80;46.80
74617;DHT22;63123;50.906;4.198;2023-02-01T16:50:24;16.80;46.90
74617;DHT22;63123;50.906;4.198;2023-02-01T16:52:51;16.80;46.80
74617;DHT22;63123;50.906;4.198;2023-02-01T16:55:19;16.80;46.90
74617;DHT22;63123;50.906;4.198;2023-02-01T16:57:47;16.80;46.90
74617;DHT22;63123;50.906;4.198;2023-02-01T17:00:13;16.80;46.90
74617;DHT22;63123;50.906;4.198;2023-02-01T17:02:41;16.80;46.80
74617;DHT22;63123;50.906;4.198;2023-02-01T17:05:08;16.80;46.70
74617;DHT22;63123;50.906;4.198;2023-02-01T17:07:34;16.80;46.90
74617;DHT22;63123;50.906;4.198;2023-02-01T17:10:00;16.90;47.00
74617;DHT22;63123;50.906;4.198;2023-02-01T17:12:29;16.80;47.20
74617;DHT22;63123;50.906;4.198;2023-02-01T17:14:56;16.80;47.10
74617;DHT22;63123;50.906;4.198;2023-02-01T17:17:23;16.80;47.10
74617;DHT22;63123;50.906;4.198;2023-02-01T17:19:52;16.80;47.10
74617;DHT22;63123;50.906;4.198;2023-02-01T17:22:22;16.80;47.20
74617;DHT22;63123;50.906;4.198;2023-02-01T17:24:49;16.80;47.10
74617;DHT22;63123;50.906;4.198;2023-02-01T17:27:16;16.80;47.20
74617;DHT22;63123;50.906;4.198;2023-02-01T17:29:41;16.80;47.20
74617;DHT22;63123;50.906;4.198;2023-02-01T17:32:17;16.80;47.20
74617;DHT22;63123;50.906;4.198;2023-02-01T17:34:43;16.80;47.30
74617;DHT22;63123;50.906;4.198;2023-02-01T17:37:36;16.80;47.40
74617;DHT22;63123;50.906;4.198;2023-02-01T17:40:02;16.80;47.30
74617;DHT22;63123;50.906;4.198;2023-02-01T17:42:29;16.80;47.40
74617;DHT22;63123;50.906;4.198;2023-02-01T17:45:13;16.80;47.40
74617;DHT22;63123;50.906;4.198;2023-02-01T17:47:42;16.80;47.40
74617;DHT22;63123;50.906;4.198;2023-02-01T17:50:08;16.80;47.60
74617;DHT22;63123;50.906;4.198;2023-02-01T17:52:33;16.80;47.70
74617;DHT22;63123;50.906;4.198;2023-02-01T17:55:00;16.80;47.70
74617;DHT22;63123;50.906;4.198;2023-02-01T17:57:28;16.80;47.90
74617;DHT22;63123;50.906;4.198;2023-02-01T17:59:53;16.80;47.70
74617;DHT22;63123;50.906;4.198;2023-02-01T18:02:21;16.80;47.80
74617;DHT22;63123;50.906;4.198;2023-02-01T18:04:48;16.80;47.90
74617;DHT22;63123;50.906;4.198;2023-02-01T18:07:14;16.80;47.70
74617;DHT22;63123;50.906;4.198;2023-02-01T18:09:40;16.80;47.60
74617;DHT22;63123;50.906;4.198;2023-02-01T18:12:16;16.80;48.30
74617;DHT22;63123;50.906;4.198;2023-02-01T18:14:42;16.80;47.60
74617;DHT22;63123;50.906;4.198;2023-02-01T18:17:08;16.80;47.70
74617;DHT22;63123;50.906;4.198;2023-02-01T18:19:34;16.80;47.70
74617;DHT22;63123;50.906;4.198;2023-02-01T18:22:01;16.80;47.90
74617;DHT22;63123;50.906;4.198;2023-02-01T18:24:27;16.80;47.70
74617;DHT22;63123;50.906;4.198;2023-02-01T18:26:54;16.80;47.80
74617;DHT22;63123;50.906;4.198;2023-02-01T18:29:20;16.80;47.80
74617;DHT22;63123;50.906;4.198;2023-02-01T18:31:47;16.80;47.80